createdAt,value
2018-02-21T00:00:09.784Z,21.83
2018-02-21T00:01:09.757Z,21.84
2018-02-21T00:02:09.771Z,21.84
2018-02-21T00:03:09.726Z,21.86
2018-02-21T00:04:09.704Z,21.91
2018-02-21T00:05:09.686Z,21.86
2018-02-21T00:06:09.664Z,21.94
2018-02-21T00:07:09.651Z,21.83
2018-02-21T00:08:09.628Z,21.86
2018-02-21T00:09:09.604Z,21.99
2018-02-21T00:10:09.583Z,21.90
2018-02-21T00:11:09.563Z,21.91
2018-02-21T00:12:09.551Z,21.86
2018-02-21T00:13:09.530Z,21.82
2018-02-21T00:14:09.514Z,21.79
2018-02-21T00:15:09.498Z,21.83
2018-02-21T00:16:09.478Z,21.77
2018-02-21T00:17:09.454Z,21.91
2018-02-21T00:18:09.428Z,21.88
2018-02-21T00:19:09.406Z,21.80
2018-02-21T00:20:09.400Z,21.88
2018-02-21T00:21:09.383Z,21.84
2018-02-21T00:22:09.352Z,21.82
2018-02-21T00:23:09.336Z,21.90
2018-02-21T00:24:09.319Z,21.88
2018-02-21T00:25:09.293Z,21.82
2018-02-21T00:26:09.272Z,21.91
2018-02-21T00:27:09.264Z,21.80
2018-02-21T00:28:09.239Z,21.75
2018-02-21T00:29:09.218Z,21.80
2018-02-21T00:30:09.201Z,21.88
2018-02-21T00:31:09.182Z,21.92
2018-02-21T00:32:09.162Z,21.84
2018-02-21T00:33:09.150Z,21.96
2018-02-21T00:34:09.114Z,21.79
2018-02-21T00:35:09.103Z,21.84
2018-02-21T00:36:09.081Z,21.94
2018-02-21T00:37:09.062Z,21.84
2018-02-21T00:38:09.045Z,21.88
2018-02-21T00:39:09.059Z,21.83
2018-02-21T00:40:09.007Z,21.84
2018-02-21T00:41:08.981Z,21.92
2018-02-21T00:42:08.965Z,21.86
2018-02-21T00:43:08.940Z,21.80
2018-02-21T00:44:08.925Z,21.86
2018-02-21T00:45:08.898Z,21.86
2018-02-21T00:46:08.882Z,21.86
2018-02-21T00:47:08.883Z,21.80
2018-02-21T00:48:08.852Z,21.86
2018-02-21T00:49:08.843Z,21.90
2018-02-21T00:50:08.814Z,21.91
2018-02-21T00:51:08.783Z,21.86
2018-02-21T00:52:08.820Z,21.83
2018-02-21T00:53:08.752Z,21.90
2018-02-21T00:54:08.730Z,21.92
2018-02-21T00:55:08.712Z,21.90
2018-02-21T00:56:08.689Z,21.90
2018-02-21T00:57:08.677Z,21.79
2018-02-21T00:58:08.655Z,21.88
2018-02-21T00:59:08.636Z,21.90
2018-02-21T01:00:08.617Z,21.79
2018-02-21T01:01:08.588Z,21.92
2018-02-21T01:02:08.568Z,22.03
2018-02-21T01:03:08.567Z,21.92
2018-02-21T01:04:08.539Z,21.90
2018-02-21T01:05:08.515Z,22.03
2018-02-21T01:06:08.498Z,22.09
2018-02-21T01:07:08.476Z,22.06
2018-02-21T01:08:08.452Z,21.88
2018-02-21T01:09:08.448Z,21.84
2018-02-21T01:10:08.424Z,21.82
2018-02-21T01:11:08.405Z,21.71
2018-02-21T01:12:08.385Z,21.72
2018-02-21T01:13:08.372Z,21.69
2018-02-21T01:14:08.356Z,21.77
2018-02-21T01:15:08.331Z,21.72
2018-02-21T01:16:08.310Z,21.74
2018-02-21T01:17:08.281Z,21.59
2018-02-21T01:18:08.264Z,21.68
2018-02-21T01:19:08.249Z,21.59
2018-02-21T01:20:08.233Z,21.65
2018-02-21T01:21:08.210Z,21.67
2018-02-21T01:22:08.196Z,21.64
2018-02-21T01:23:08.168Z,21.67
2018-02-21T01:24:08.167Z,21.62
2018-02-21T01:25:08.141Z,21.54
2018-02-21T01:26:08.110Z,21.62
2018-02-21T01:27:08.095Z,21.64
2018-02-21T01:28:08.070Z,21.52
2018-02-21T01:29:08.059Z,21.68
2018-02-21T01:30:08.037Z,21.62
2018-02-21T01:31:08.025Z,21.67
2018-02-21T01:32:07.990Z,21.74
2018-02-21T01:33:07.975Z,21.75
2018-02-21T01:34:07.954Z,21.75
2018-02-21T01:35:07.946Z,21.72
2018-02-21T01:36:07.920Z,21.71
2018-02-21T01:37:07.902Z,21.72
2018-02-21T01:38:07.879Z,21.69
2018-02-21T01:39:07.861Z,21.71
2018-02-21T01:40:07.844Z,21.71
2018-02-21T01:41:07.830Z,21.88
2018-02-21T01:42:07.799Z,21.91
2018-02-21T01:43:07.784Z,21.69
2018-02-21T01:44:07.765Z,21.69
2018-02-21T01:45:07.738Z,21.79
2018-02-21T01:46:07.731Z,21.72
2018-02-21T01:47:07.706Z,21.72
2018-02-21T01:48:07.685Z,21.68
2018-02-21T01:49:07.672Z,21.72
2018-02-21T01:50:07.645Z,21.77
2018-02-21T01:51:07.623Z,21.75
2018-02-21T01:52:07.608Z,21.86
2018-02-21T01:53:07.590Z,21.80
2018-02-21T01:54:07.584Z,21.61
2018-02-21T01:55:07.560Z,21.68
2018-02-21T01:56:07.533Z,21.65
2018-02-21T01:57:07.516Z,21.68
2018-02-21T01:58:07.499Z,21.69
2018-02-21T01:59:07.470Z,21.75
2018-02-21T02:00:07.447Z,21.65
2018-02-21T02:01:07.435Z,21.72
2018-02-21T02:02:07.412Z,21.64
2018-02-21T02:03:07.395Z,21.75
2018-02-21T02:04:07.385Z,21.71
2018-02-21T02:05:07.362Z,21.75
2018-02-21T02:06:07.346Z,21.75
2018-02-21T02:07:07.328Z,21.72
2018-02-21T02:08:07.301Z,21.67
2018-02-21T02:09:07.276Z,21.74
2018-02-21T02:10:07.260Z,21.72
2018-02-21T02:11:07.239Z,21.53
2018-02-21T02:12:07.220Z,21.62
2018-02-21T02:13:07.194Z,21.62
2018-02-21T02:14:07.186Z,21.68
2018-02-21T02:15:07.162Z,21.54
2018-02-21T02:16:07.148Z,21.59
2018-02-21T02:17:07.126Z,21.64
2018-02-21T02:18:07.105Z,21.72
2018-02-21T02:19:07.082Z,21.65
2018-02-21T02:20:07.068Z,21.65
2018-02-21T02:21:07.049Z,21.71
2018-02-21T02:22:07.028Z,21.71
2018-02-21T02:23:07.015Z,21.71
2018-02-21T02:24:06.989Z,21.71
2018-02-21T02:25:06.968Z,21.68
2018-02-21T02:26:06.951Z,21.72
2018-02-21T02:27:06.930Z,21.69
2018-02-21T02:28:06.911Z,21.69
2018-02-21T02:29:06.894Z,21.80
2018-02-21T02:30:06.883Z,21.74
2018-02-21T02:31:06.849Z,21.75
2018-02-21T02:32:06.832Z,21.74
2018-02-21T02:33:06.812Z,21.75
2018-02-21T02:34:06.800Z,21.77
2018-02-21T02:35:06.778Z,21.71
2018-02-21T02:36:06.757Z,21.75
2018-02-21T02:37:06.739Z,21.71
2018-02-21T02:38:06.728Z,21.72
2018-02-21T02:39:06.697Z,21.77
2018-02-21T02:40:06.682Z,21.71
2018-02-21T02:41:06.659Z,21.72
2018-02-21T02:42:06.643Z,21.75
2018-02-21T02:43:06.626Z,21.71
2018-02-21T02:44:06.600Z,21.69
2018-02-21T02:45:06.588Z,21.72
2018-02-21T02:46:06.558Z,21.69
2018-02-21T02:47:06.538Z,21.75
2018-02-21T02:48:06.525Z,21.69
2018-02-21T02:49:06.506Z,21.68
2018-02-21T02:50:06.484Z,21.75
2018-02-21T02:51:06.466Z,21.72
2018-02-21T02:52:06.452Z,21.74
2018-02-21T02:53:06.420Z,21.77
2018-02-21T02:54:06.408Z,21.72
2018-02-21T02:55:06.393Z,21.74
2018-02-21T02:56:06.366Z,21.71
2018-02-21T02:57:06.360Z,21.67
2018-02-21T02:58:06.333Z,21.68
2018-02-21T02:59:06.318Z,21.77
2018-02-21T03:00:06.283Z,21.72
2018-02-21T03:01:06.280Z,21.77
2018-02-21T03:02:06.253Z,21.64
2018-02-21T03:03:06.240Z,21.71
2018-02-21T03:04:06.210Z,21.68
2018-02-21T03:05:06.187Z,21.65
2018-02-21T03:06:06.175Z,21.67
2018-02-21T03:07:06.147Z,21.74
2018-02-21T03:08:06.130Z,21.64
2018-02-21T03:09:06.117Z,21.65
2018-02-21T03:10:06.091Z,21.61
2018-02-21T03:11:06.079Z,21.69
2018-02-21T03:12:06.053Z,21.72
2018-02-21T03:13:06.029Z,21.62
2018-02-21T03:14:06.022Z,21.64
2018-02-21T03:15:05.997Z,21.58
2018-02-21T03:16:05.989Z,21.56
2018-02-21T03:17:05.961Z,21.56
2018-02-21T03:18:05.941Z,21.59
2018-02-21T03:19:05.915Z,21.67
2018-02-21T03:20:05.901Z,21.52
2018-02-21T03:21:05.885Z,21.62
2018-02-21T03:22:05.864Z,21.65
2018-02-21T03:23:05.839Z,21.56
2018-02-21T03:24:05.820Z,21.65
2018-02-21T03:25:05.808Z,21.67
2018-02-21T03:26:05.790Z,21.74
2018-02-21T03:27:05.770Z,21.69
2018-02-21T03:28:05.746Z,21.64
2018-02-21T03:29:05.723Z,21.72
2018-02-21T03:30:05.701Z,21.71
2018-02-21T03:31:05.697Z,21.69
2018-02-21T03:32:05.674Z,21.75
2018-02-21T03:33:05.641Z,21.79
2018-02-21T03:34:05.628Z,21.69
2018-02-21T03:35:05.609Z,21.84
2018-02-21T03:36:05.583Z,21.71
2018-02-21T03:37:05.568Z,21.72
2018-02-21T03:38:05.547Z,21.80
2018-02-21T03:39:05.527Z,21.77
2018-02-21T03:40:05.505Z,21.72
2018-02-21T03:41:05.488Z,21.69
2018-02-21T03:42:05.472Z,21.77
2018-02-21T03:43:05.455Z,21.75
2018-02-21T03:44:05.436Z,21.80
2018-02-21T03:45:05.417Z,21.77
2018-02-21T03:46:05.399Z,21.75
2018-02-21T03:47:05.378Z,21.90
2018-02-21T03:48:05.359Z,21.84
2018-02-21T03:49:05.339Z,21.82
2018-02-21T03:50:05.321Z,21.75
2018-02-21T03:51:05.383Z,21.72
2018-02-21T03:52:05.288Z,21.74
2018-02-21T03:53:05.262Z,21.74
2018-02-21T03:54:05.239Z,21.71
2018-02-21T03:55:05.223Z,21.77
2018-02-21T03:56:05.204Z,21.84
2018-02-21T03:57:05.238Z,21.72
2018-02-21T03:58:05.164Z,21.75
2018-02-21T03:59:05.149Z,21.72
2018-02-21T04:00:05.127Z,21.71
2018-02-21T04:01:05.101Z,21.86
2018-02-21T04:02:05.084Z,21.74
2018-02-21T04:03:05.079Z,21.75
2018-02-21T04:04:05.043Z,21.79
2018-02-21T04:05:05.037Z,21.67
2018-02-21T04:06:05.005Z,21.75
2018-02-21T04:07:04.994Z,21.74
2018-02-21T04:08:04.974Z,21.72
2018-02-21T04:09:04.953Z,21.79
2018-02-21T04:10:04.935Z,21.77
2018-02-21T04:11:04.919Z,21.69
2018-02-21T04:12:04.896Z,21.75
2018-02-21T04:13:04.889Z,21.69
2018-02-21T04:14:04.859Z,21.72
2018-02-21T04:15:04.846Z,21.83
2018-02-21T04:16:04.820Z,21.80
2018-02-21T04:17:04.802Z,21.68
2018-02-21T04:18:04.777Z,21.77
2018-02-21T04:19:04.762Z,21.74
2018-02-21T04:20:04.744Z,21.69
2018-02-21T04:21:04.720Z,21.84
2018-02-21T04:22:04.700Z,21.77
2018-02-21T04:23:04.693Z,21.83
2018-02-21T04:24:04.657Z,21.75
2018-02-21T04:25:04.647Z,21.86
2018-02-21T04:26:04.628Z,21.88
2018-02-21T04:27:04.610Z,21.77
2018-02-21T04:28:04.584Z,21.82
2018-02-21T04:29:04.577Z,21.75
2018-02-21T04:30:04.555Z,21.86
2018-02-21T04:31:04.528Z,21.71
2018-02-21T04:32:04.511Z,21.72
2018-02-21T04:33:04.486Z,21.84
2018-02-21T04:34:04.467Z,21.77
2018-02-21T04:35:04.454Z,21.74
2018-02-21T04:36:04.436Z,21.71
2018-02-21T04:37:04.423Z,21.75
2018-02-21T04:38:04.395Z,21.67
2018-02-21T04:39:04.378Z,21.64
2018-02-21T04:40:04.351Z,21.64
2018-02-21T04:41:04.327Z,21.65
2018-02-21T04:42:04.325Z,21.75
2018-02-21T04:43:04.294Z,21.82
2018-02-21T04:44:04.278Z,21.71
2018-02-21T04:45:04.263Z,21.84
2018-02-21T04:46:04.235Z,21.88
2018-02-21T04:47:04.218Z,21.92
2018-02-21T04:48:04.195Z,21.94
2018-02-21T04:49:04.183Z,22.02
2018-02-21T04:50:04.159Z,21.91
2018-02-21T04:51:04.138Z,21.94
2018-02-21T04:52:04.127Z,22.00
2018-02-21T04:53:04.106Z,22.05
2018-02-21T04:54:04.076Z,21.98
2018-02-21T04:55:04.061Z,21.94
2018-02-21T04:56:04.048Z,22.07
2018-02-21T04:57:04.029Z,22.07
2018-02-21T04:58:04.008Z,22.10
2018-02-21T04:59:03.981Z,22.00
2018-02-21T05:00:03.962Z,21.98
2018-02-21T05:01:03.953Z,22.03
2018-02-21T05:02:03.929Z,22.06
2018-02-21T05:03:03.909Z,22.07
2018-02-21T05:04:03.906Z,22.06
2018-02-21T05:05:03.872Z,22.10
2018-02-21T05:06:03.846Z,22.15
2018-02-21T05:07:03.833Z,22.07
2018-02-21T05:08:03.818Z,22.03
2018-02-21T05:09:03.788Z,22.05
2018-02-21T05:10:03.785Z,22.03
2018-02-21T05:11:03.760Z,21.99
2018-02-21T05:12:03.737Z,21.96
2018-02-21T05:13:03.721Z,21.98
2018-02-21T05:14:03.695Z,21.96
2018-02-21T05:15:03.676Z,22.00
2018-02-21T05:16:03.659Z,22.02
2018-02-21T05:17:03.647Z,22.02
2018-02-21T05:18:03.621Z,21.91
2018-02-21T05:19:03.598Z,21.88
2018-02-21T05:20:03.580Z,21.74
2018-02-21T05:21:03.569Z,21.84
2018-02-21T05:22:03.549Z,21.77
2018-02-21T05:23:03.518Z,21.75
2018-02-21T05:24:03.512Z,21.88
2018-02-21T05:25:03.520Z,21.91
2018-02-21T05:26:03.470Z,21.83
2018-02-21T05:27:03.453Z,21.88
2018-02-21T05:28:03.426Z,21.86
2018-02-21T05:29:03.408Z,21.86
2018-02-21T05:30:03.380Z,21.94
2018-02-21T05:31:03.368Z,21.96
2018-02-21T05:32:03.359Z,21.96
2018-02-21T05:33:03.324Z,21.90
2018-02-21T05:34:03.309Z,21.90
2018-02-21T05:35:03.298Z,22.00
2018-02-21T05:36:03.273Z,21.91
2018-02-21T05:37:03.247Z,21.83
2018-02-21T05:38:03.226Z,21.84
2018-02-21T05:39:03.216Z,21.90
2018-02-21T05:40:03.188Z,21.82
2018-02-21T05:41:03.176Z,21.84
2018-02-21T05:42:03.147Z,21.86
2018-02-21T05:43:03.128Z,21.94
2018-02-21T05:44:03.120Z,21.92
2018-02-21T05:45:03.096Z,21.91
2018-02-21T05:46:03.071Z,21.90
2018-02-21T05:47:03.053Z,21.94
2018-02-21T05:48:03.052Z,21.79
2018-02-21T05:49:03.024Z,21.88
2018-02-21T05:50:03.000Z,21.77
2018-02-21T05:51:02.985Z,21.72
2018-02-21T05:52:02.969Z,21.65
2018-02-21T05:53:02.962Z,21.75
2018-02-21T05:54:02.927Z,21.71
2018-02-21T05:55:02.910Z,21.82
2018-02-21T05:56:02.876Z,21.84
2018-02-21T05:57:02.863Z,21.77
2018-02-21T05:58:02.843Z,21.77
2018-02-21T05:59:02.831Z,21.72
2018-02-21T06:00:02.798Z,21.75
2018-02-21T06:01:02.792Z,21.77
2018-02-21T06:02:02.772Z,21.75
2018-02-21T06:03:02.755Z,21.72
2018-02-21T06:04:02.730Z,21.62
2018-02-21T06:05:02.706Z,21.68
2018-02-21T06:06:02.687Z,21.72
2018-02-21T06:07:02.662Z,21.72
2018-02-21T06:08:02.644Z,21.67
2018-02-21T06:09:02.620Z,21.69
2018-02-21T06:10:02.606Z,21.64
2018-02-21T06:11:02.586Z,21.74
2018-02-21T06:12:02.579Z,21.65
2018-02-21T06:13:02.549Z,21.77
2018-02-21T06:14:02.527Z,21.75
2018-02-21T06:15:02.509Z,21.72
2018-02-21T06:16:02.500Z,21.72
2018-02-21T06:17:02.463Z,21.75
2018-02-21T06:18:02.450Z,21.71
2018-02-21T06:19:02.423Z,21.71
2018-02-21T06:20:02.405Z,21.79
2018-02-21T06:21:02.392Z,21.68
2018-02-21T06:22:02.378Z,21.72
2018-02-21T06:23:02.361Z,21.79
2018-02-21T06:24:02.334Z,21.75
2018-02-21T06:25:02.320Z,21.74
2018-02-21T06:26:02.292Z,21.77
2018-02-21T06:27:02.272Z,21.69
2018-02-21T06:28:02.251Z,21.75
2018-02-21T06:29:02.242Z,21.72
2018-02-21T06:30:02.224Z,21.65
2018-02-21T06:31:02.197Z,21.72
2018-02-21T06:32:02.178Z,21.65
2018-02-21T06:33:02.155Z,21.67
2018-02-21T06:34:02.145Z,21.68
2018-02-21T06:35:02.119Z,21.77
2018-02-21T06:36:02.089Z,21.75
2018-02-21T06:37:02.076Z,21.75
2018-02-21T06:38:02.061Z,21.74
2018-02-21T06:39:02.032Z,21.67
2018-02-21T06:40:02.010Z,21.72
2018-02-21T06:41:01.993Z,21.69
2018-02-21T06:42:01.979Z,21.68
2018-02-21T06:43:01.961Z,21.72
2018-02-21T06:44:01.937Z,21.72
2018-02-21T06:45:01.926Z,21.71
2018-02-21T06:46:01.893Z,21.72
2018-02-21T06:47:01.878Z,21.75
2018-02-21T06:48:01.859Z,21.77
2018-02-21T06:49:01.853Z,21.75
2018-02-21T06:50:01.820Z,21.77
2018-02-21T06:51:01.804Z,21.77
2018-02-21T06:52:01.777Z,21.75
2018-02-21T06:53:01.765Z,21.72
2018-02-21T06:54:01.740Z,21.75
2018-02-21T06:55:01.728Z,21.75
2018-02-21T06:56:01.701Z,21.72
2018-02-21T06:57:01.680Z,21.58
2018-02-21T06:58:01.669Z,21.71
2018-02-21T06:59:01.643Z,21.64
2018-02-21T07:00:01.628Z,21.54
2018-02-21T07:01:01.606Z,21.61
2018-02-21T07:02:01.591Z,21.59
2018-02-21T07:03:01.572Z,21.59
2018-02-21T07:04:01.554Z,21.65
2018-02-21T07:05:01.528Z,21.64
2018-02-21T07:06:01.510Z,21.67
2018-02-21T07:07:01.484Z,21.59
2018-02-21T07:08:01.465Z,21.67
2018-02-21T07:09:01.447Z,21.67
2018-02-21T07:10:01.436Z,21.68
2018-02-21T07:11:01.410Z,21.59
2018-02-21T07:12:01.392Z,21.61
2018-02-21T07:13:01.378Z,21.62
2018-02-21T07:14:01.349Z,21.56
2018-02-21T07:15:01.336Z,21.58
2018-02-21T07:16:01.326Z,21.62
2018-02-21T07:17:01.295Z,21.56
2018-02-21T07:18:01.271Z,21.59
2018-02-21T07:19:01.259Z,21.58
2018-02-21T07:20:01.227Z,21.59
2018-02-21T07:21:01.207Z,21.54
2018-02-21T07:22:01.195Z,21.54
2018-02-21T07:23:01.172Z,21.58
2018-02-21T07:24:01.148Z,21.59
2018-02-21T07:25:01.136Z,21.54
2018-02-21T07:26:01.134Z,21.56
2018-02-21T07:27:01.121Z,21.54
2018-02-21T07:28:01.078Z,21.62
2018-02-21T07:29:01.057Z,21.61
2018-02-21T07:30:01.042Z,21.62
2018-02-21T07:31:01.014Z,21.59
2018-02-21T07:32:00.992Z,21.62
2018-02-21T07:33:00.981Z,21.61
2018-02-21T07:34:00.958Z,21.59
2018-02-21T07:35:00.930Z,21.58
2018-02-21T07:36:00.929Z,21.56
2018-02-21T07:37:00.900Z,21.65
2018-02-21T07:38:00.878Z,21.65
2018-02-21T07:39:00.866Z,21.54
2018-02-21T07:40:00.839Z,21.52
2018-02-21T07:41:00.818Z,21.50
2018-02-21T07:42:00.803Z,21.56
2018-02-21T07:43:00.780Z,21.56
2018-02-21T07:44:00.770Z,21.49
2018-02-21T07:45:00.745Z,21.46
2018-02-21T07:46:00.732Z,21.35
2018-02-21T07:47:00.708Z,21.38
2018-02-21T07:48:00.683Z,21.40
2018-02-21T07:49:00.681Z,21.34
2018-02-21T07:50:00.647Z,21.38
2018-02-21T07:51:00.880Z,21.37
2018-02-21T07:52:00.595Z,21.31
2018-02-21T07:53:00.593Z,21.38
2018-02-21T07:54:00.562Z,21.37
2018-02-21T07:55:00.536Z,21.38
2018-02-21T07:56:00.521Z,21.34
2018-02-21T07:57:00.506Z,21.25
2018-02-21T07:58:00.491Z,21.27
2018-02-21T07:59:00.465Z,21.14
2018-02-21T08:00:00.445Z,21.19
2018-02-21T08:01:00.442Z,21.13
2018-02-21T08:02:00.402Z,21.06
2018-02-21T08:03:00.388Z,21.03
2018-02-21T08:04:00.360Z,21.13
2018-02-21T08:05:00.401Z,21.12
2018-02-21T08:06:00.332Z,21.21
2018-02-21T08:07:00.315Z,21.25
2018-02-21T08:08:00.287Z,21.24
2018-02-21T08:09:00.261Z,21.19
2018-02-21T08:10:00.243Z,21.27
2018-02-21T08:11:00.219Z,21.28
2018-02-21T08:12:00.200Z,21.32
2018-02-21T08:13:00.184Z,21.25
2018-02-21T08:14:00.211Z,21.24
2018-02-21T08:15:00.142Z,21.25
2018-02-21T08:16:00.134Z,21.22
2018-02-21T08:17:00.107Z,21.10
2018-02-21T08:18:00.082Z,21.04
2018-02-21T08:19:00.068Z,21.04
2018-02-21T08:20:00.046Z,21.09
2018-02-21T08:21:00.024Z,21.09
2018-02-21T08:22:00.009Z,21.13
2018-02-21T08:22:59.995Z,21.07
2018-02-21T08:23:59.968Z,21.01
2018-02-21T08:24:59.937Z,20.95
2018-02-21T08:25:59.925Z,20.94
2018-02-21T08:26:59.914Z,20.87
2018-02-21T08:27:59.881Z,20.87
2018-02-21T08:28:59.873Z,20.98
2018-02-21T08:29:59.841Z,20.88
2018-02-21T08:30:59.826Z,20.94
2018-02-21T08:31:59.804Z,20.94
2018-02-21T08:32:59.778Z,20.82
2018-02-21T08:33:59.763Z,20.87
2018-02-21T08:34:59.746Z,20.76
2018-02-21T08:35:59.728Z,20.76
2018-02-21T08:36:59.702Z,20.92
2018-02-21T08:37:59.692Z,20.97
2018-02-21T08:38:59.668Z,20.95
2018-02-21T08:39:59.648Z,20.95
2018-02-21T08:40:59.624Z,20.97
2018-02-21T08:41:59.607Z,20.95
2018-02-21T08:42:59.590Z,20.82
2018-02-21T08:43:59.572Z,20.74
2018-02-21T08:44:59.552Z,20.88
2018-02-21T08:45:59.554Z,20.91
2018-02-21T08:46:59.516Z,20.94
2018-02-21T08:47:59.492Z,20.92
2018-02-21T08:48:59.467Z,20.97
2018-02-21T08:49:59.447Z,20.95
2018-02-21T08:50:59.425Z,20.95
2018-02-21T08:51:59.408Z,21.04
2018-02-21T08:52:59.396Z,20.99
2018-02-21T08:53:59.365Z,21.04
2018-02-21T08:54:59.343Z,21.01
2018-02-21T08:55:59.324Z,21.03
2018-02-21T08:56:59.313Z,20.95
2018-02-21T08:57:59.323Z,21.01
2018-02-21T08:58:59.267Z,21.09
2018-02-21T08:59:59.241Z,21.04
2018-02-21T09:00:59.229Z,21.10
2018-02-21T09:01:59.206Z,21.12
2018-02-21T09:02:59.192Z,21.16
2018-02-21T09:03:59.168Z,21.14
2018-02-21T09:04:59.151Z,21.09
2018-02-21T09:05:59.121Z,21.14
2018-02-21T09:06:59.098Z,21.10
2018-02-21T09:07:59.084Z,21.17
2018-02-21T09:08:59.075Z,21.29
2018-02-21T09:09:59.041Z,21.34
2018-02-21T09:10:59.042Z,21.22
2018-02-21T09:11:58.998Z,21.42
2018-02-21T09:12:58.987Z,21.38
2018-02-21T09:13:58.961Z,21.56
2018-02-21T09:14:58.939Z,21.59
2018-02-21T09:15:58.923Z,21.80
2018-02-21T09:16:58.920Z,21.96
2018-02-21T09:17:58.886Z,22.35
2018-02-21T09:18:58.870Z,22.77
2018-02-21T09:19:58.858Z,23.15
2018-02-21T09:20:58.820Z,23.42
2018-02-21T09:21:58.816Z,23.50
2018-02-21T09:22:58.781Z,23.42
2018-02-21T09:23:58.770Z,23.61
2018-02-21T09:24:58.754Z,23.75
2018-02-21T09:25:58.737Z,23.87
2018-02-21T09:26:58.709Z,24.09
2018-02-21T09:27:58.687Z,24.21
2018-02-21T09:28:58.675Z,24.45
2018-02-21T09:29:58.657Z,24.76
2018-02-21T09:30:58.639Z,25.03
2018-02-21T09:31:58.611Z,24.69
2018-02-21T09:32:58.594Z,24.40
2018-02-21T09:33:58.578Z,23.69
2018-02-21T09:34:58.558Z,23.32
2018-02-21T09:35:58.538Z,23.40
2018-02-21T09:36:58.572Z,23.85
2018-02-21T09:37:58.504Z,24.15
2018-02-21T09:38:58.484Z,24.20
2018-02-21T09:39:58.483Z,24.21
2018-02-21T09:40:58.453Z,23.97
2018-02-21T09:41:58.429Z,23.83
2018-02-21T09:42:58.419Z,23.87
2018-02-21T09:43:58.399Z,23.72
2018-02-21T09:44:58.376Z,23.68
2018-02-21T09:45:58.359Z,23.04
2018-02-21T09:46:58.343Z,22.86
2018-02-21T09:47:58.328Z,22.68
2018-02-21T09:48:58.303Z,22.55
2018-02-21T09:49:58.295Z,22.37
2018-02-21T09:50:58.264Z,22.51
2018-02-21T09:51:58.245Z,22.77
2018-02-21T09:52:58.233Z,23.65
2018-02-21T09:53:58.207Z,24.18
2018-02-21T09:54:58.223Z,24.39
2018-02-21T09:55:58.183Z,24.34
2018-02-21T09:56:58.165Z,24.32
2018-02-21T09:57:58.134Z,24.16
2018-02-21T09:58:58.117Z,24.31
2018-02-21T09:59:58.099Z,24.27
2018-02-21T10:00:58.125Z,23.90
2018-02-21T10:01:58.070Z,23.47
2018-02-21T10:02:58.043Z,23.43
2018-02-21T10:03:58.030Z,23.95
2018-02-21T10:04:58.012Z,24.50
2018-02-21T10:05:58.007Z,24.87
2018-02-21T10:06:57.972Z,25.40
2018-02-21T10:07:57.962Z,25.72
2018-02-21T10:08:57.941Z,26.39
2018-02-21T10:09:57.925Z,26.51
2018-02-21T10:10:57.903Z,26.39
2018-02-21T10:11:57.890Z,26.07
2018-02-21T10:12:57.876Z,25.57
2018-02-21T10:13:57.861Z,25.60
2018-02-21T10:14:57.841Z,25.73
2018-02-21T10:15:57.815Z,25.76
2018-02-21T10:16:57.796Z,25.57
2018-02-21T10:17:57.793Z,25.36
2018-02-21T10:18:57.768Z,25.39
2018-02-21T10:19:57.748Z,25.67
2018-02-21T10:20:57.728Z,25.80
2018-02-21T10:21:57.715Z,25.69
2018-02-21T10:22:57.704Z,25.80
2018-02-21T10:23:57.688Z,25.80
2018-02-21T10:24:57.661Z,26.05
2018-02-21T10:25:57.651Z,25.65
2018-02-21T10:26:57.634Z,25.45
2018-02-21T10:27:57.612Z,25.54
2018-02-21T10:28:57.596Z,25.43
2018-02-21T10:29:57.591Z,25.06
2018-02-21T10:30:57.569Z,25.35
2018-02-21T10:31:57.544Z,25.32
2018-02-21T10:32:57.531Z,25.57
2018-02-21T10:33:57.512Z,25.43
2018-02-21T10:34:57.513Z,25.13
2018-02-21T10:35:57.478Z,24.67
2018-02-21T10:36:57.471Z,24.85
2018-02-21T10:37:57.452Z,24.93
2018-02-21T10:38:57.432Z,25.10
2018-02-21T10:39:57.415Z,25.00
2018-02-21T10:40:57.408Z,24.40
2018-02-21T10:41:57.385Z,23.78
2018-02-21T10:42:57.375Z,23.55
2018-02-21T10:43:57.354Z,23.87
2018-02-21T10:44:57.336Z,25.13
2018-02-21T10:45:57.333Z,25.90
2018-02-21T10:46:57.313Z,25.67
2018-02-21T10:47:57.286Z,24.98
2018-02-21T10:48:57.276Z,24.31
2018-02-21T10:49:57.267Z,24.32
2018-02-21T10:50:57.243Z,25.02
2018-02-21T10:51:57.222Z,26.40
2018-02-21T10:52:57.202Z,26.91
2018-02-21T10:53:57.223Z,27.25
2018-02-21T10:54:57.192Z,27.29
2018-02-21T10:55:57.158Z,25.76
2018-02-21T10:56:57.148Z,25.03
2018-02-21T10:57:57.130Z,24.77
2018-02-21T10:58:57.109Z,24.99
2018-02-21T10:59:57.096Z,25.38
2018-02-21T11:00:57.077Z,25.23
2018-02-21T11:01:57.060Z,25.99
2018-02-21T11:02:57.053Z,26.92
2018-02-21T11:03:57.029Z,27.44
2018-02-21T11:04:57.025Z,27.29
2018-02-21T11:05:57.002Z,26.67
2018-02-21T11:06:56.990Z,25.77
2018-02-21T11:07:56.972Z,25.33
2018-02-21T11:08:56.957Z,24.83
2018-02-21T11:09:56.949Z,24.46
2018-02-21T11:10:56.924Z,24.42
2018-02-21T11:11:56.908Z,24.71
2018-02-21T11:12:56.900Z,25.40
2018-02-21T11:13:56.889Z,25.32
2018-02-21T11:14:56.867Z,25.45
2018-02-21T11:15:56.858Z,25.32
2018-02-21T11:16:56.838Z,24.84
2018-02-21T11:17:56.822Z,25.00
2018-02-21T11:18:56.815Z,24.95
2018-02-21T11:19:56.789Z,25.43
2018-02-21T11:20:56.778Z,26.30
2018-02-21T11:21:56.756Z,26.72
2018-02-21T11:22:56.743Z,26.81
2018-02-21T11:23:56.721Z,26.51
2018-02-21T11:24:56.717Z,26.77
2018-02-21T11:25:56.693Z,26.94
2018-02-21T11:26:56.690Z,26.70
2018-02-21T11:27:56.669Z,26.06
2018-02-21T11:28:56.693Z,25.35
2018-02-21T11:29:56.653Z,25.36
2018-02-21T11:30:56.623Z,25.42
2018-02-21T11:31:56.611Z,26.45
2018-02-21T11:32:56.597Z,26.92
2018-02-21T11:33:56.574Z,26.99
2018-02-21T11:34:56.566Z,28.15
2018-02-21T11:35:56.567Z,28.86
2018-02-21T11:36:56.541Z,28.40
2018-02-21T11:37:56.554Z,27.21
2018-02-21T11:38:56.516Z,26.89
2018-02-21T11:39:56.489Z,26.95
2018-02-21T11:40:56.482Z,27.09
2018-02-21T11:41:56.463Z,26.57
2018-02-21T11:42:56.454Z,26.54
2018-02-21T11:43:56.440Z,26.12
2018-02-21T11:44:56.435Z,25.55
2018-02-21T11:45:56.412Z,25.23
2018-02-21T11:46:56.405Z,24.91
2018-02-21T11:47:56.393Z,24.90
2018-02-21T11:48:56.382Z,24.87
2018-02-21T11:49:56.362Z,25.02
2018-02-21T11:50:56.354Z,26.30
2018-02-21T11:51:56.326Z,26.51
2018-02-21T11:52:56.325Z,26.05
2018-02-21T11:53:56.296Z,25.67
2018-02-21T11:54:56.291Z,26.72
2018-02-21T11:55:56.270Z,26.28
2018-02-21T11:56:56.259Z,25.57
2018-02-21T11:57:56.246Z,25.18
2018-02-21T11:58:56.223Z,25.72
2018-02-21T11:59:56.210Z,26.80
2018-02-21T12:00:56.193Z,27.47
2018-02-21T12:01:56.198Z,26.58
2018-02-21T12:02:56.172Z,25.69
2018-02-21T12:03:56.156Z,25.36
2018-02-21T12:04:56.145Z,25.52
2018-02-21T12:05:56.121Z,25.73
2018-02-21T12:06:56.110Z,26.84
2018-02-21T12:07:56.103Z,27.27
2018-02-21T12:08:56.082Z,26.47
2018-02-21T12:09:56.069Z,25.33
2018-02-21T12:10:56.061Z,25.15
2018-02-21T12:11:56.040Z,25.57
2018-02-21T12:12:56.039Z,26.65
2018-02-21T12:13:56.015Z,26.48
2018-02-21T12:14:56.010Z,25.39
2018-02-21T12:15:55.984Z,24.91
2018-02-21T12:16:55.971Z,25.47
2018-02-21T12:17:55.958Z,25.82
2018-02-21T12:18:55.952Z,25.05
2018-02-21T12:19:55.928Z,24.98
2018-02-21T12:20:55.911Z,25.70
2018-02-21T12:21:55.904Z,25.38
2018-02-21T12:22:55.879Z,24.88
2018-02-21T12:23:55.878Z,25.05
2018-02-21T12:24:55.852Z,26.12
2018-02-21T12:25:55.839Z,26.94
2018-02-21T12:26:55.834Z,27.07
2018-02-21T12:27:55.817Z,26.20
2018-02-21T12:28:55.791Z,25.36
2018-02-21T12:29:55.776Z,25.15
2018-02-21T12:30:55.768Z,26.23
2018-02-21T12:31:55.753Z,27.22
2018-02-21T12:32:55.746Z,27.18
2018-02-21T12:33:55.721Z,27.41
2018-02-21T12:34:55.765Z,27.49
2018-02-21T12:35:55.702Z,27.92
2018-02-21T12:36:55.687Z,28.46
2018-02-21T12:37:55.682Z,28.02
2018-02-21T12:38:55.667Z,27.92
2018-02-21T12:39:55.649Z,27.51
2018-02-21T12:40:55.642Z,26.69
2018-02-21T12:41:55.625Z,26.26
2018-02-21T12:42:55.621Z,25.62
2018-02-21T12:43:55.607Z,25.33
2018-02-21T12:44:55.611Z,25.47
2018-02-21T12:45:55.577Z,25.55
2018-02-21T12:46:55.562Z,25.43
2018-02-21T12:47:55.551Z,25.95
2018-02-21T12:48:55.545Z,25.65
2018-02-21T12:49:55.532Z,25.42
2018-02-21T12:50:55.501Z,26.65
2018-02-21T12:51:55.491Z,27.06